sensor_id;sensor_type;location;lat;lon;timestamp;P1;durP1;ratioP1;P2;durP2;ratioP2
29120;SDS011;16191;49.548;8.658;2022-08-06T00:00:14;5.13;;;1.23;;
29120;SDS011;16191;49.548;8.658;2022-08-06T00:02:40;2.40;;;1.10;;
29120;SDS011;16191;49.548;8.658;2022-08-06T00:05:08;4.82;;;1.30;;
29120;SDS011;16191;49.548;8.658;2022-08-06T00:07:43;2.30;;;1.30;;
29120;SDS011;16191;49.548;8.658;2022-08-06T00:10:16;4.45;;;1.20;;
29120;SDS011;16191;49.548;8.658;2022-08-06T00:12:54;4.32;;;1.40;;
29120;SDS011;16191;49.548;8.658;2022-08-06T00:15:21;6.05;;;1.30;;
29120;SDS011;16191;49.548;8.658;2022-08-06T00:18:08;3.60;;;1.10;;
29120;SDS011;16191;49.548;8.658;2022-08-06T00:20:37;6.00;;;1.35;;
29120;SDS011;16191;49.548;8.658;2022-08-06T00:23:07;2.53;;;1.42;;
29120;SDS011;16191;49.548;8.658;2022-08-06T00:25:42;2.85;;;1.33;;
29120;SDS011;16191;49.548;8.658;2022-08-06T00:28:18;3.60;;;1.15;;
29120;SDS011;16191;49.548;8.658;2022-08-06T00:30:46;7.00;;;1.90;;
29120;SDS011;16191;49.548;8.658;2022-08-06T00:33:13;3.22;;;1.25;;
29120;SDS011;16191;49.548;8.658;2022-08-06T00:35:41;4.30;;;1.83;;
29120;SDS011;16191;49.548;8.658;2022-08-06T00:38:11;4.43;;;1.92;;
29120;SDS011;16191;49.548;8.658;2022-08-06T00:40:40;4.00;;;1.48;;
29120;SDS011;16191;49.548;8.658;2022-08-06T00:43:23;5.47;;;1.58;;
29120;SDS011;16191;49.548;8.658;2022-08-06T00:45:50;4.28;;;1.25;;
29120;SDS011;16191;49.548;8.658;2022-08-06T00:48:20;3.60;;;1.00;;
29120;SDS011;16191;49.548;8.658;2022-08-06T00:51:07;3.15;;;1.17;;
29120;SDS011;16191;49.548;8.658;2022-08-06T00:53:43;2.92;;;1.30;;
29120;SDS011;16191;49.548;8.658;2022-08-06T00:56:33;2.60;;;1.08;;
29120;SDS011;16191;49.548;8.658;2022-08-06T00:59:22;3.42;;;1.35;;
29120;SDS011;16191;49.548;8.658;2022-08-06T01:02:08;4.38;;;1.20;;
29120;SDS011;16191;49.548;8.658;2022-08-06T01:04:55;4.22;;;1.38;;
29120;SDS011;16191;49.548;8.658;2022-08-06T01:08:02;4.32;;;1.02;;
29120;SDS011;16191;49.548;8.658;2022-08-06T01:10:49;3.60;;;1.20;;
29120;SDS011;16191;49.548;8.658;2022-08-06T01:13:17;7.82;;;1.30;;
29120;SDS011;16191;49.548;8.658;2022-08-06T01:16:15;4.25;;;1.50;;
29120;SDS011;16191;49.548;8.658;2022-08-06T01:19:18;8.32;;;1.30;;
29120;SDS011;16191;49.548;8.658;2022-08-06T01:28:34;2.08;;;1.23;;
29120;SDS011;16191;49.548;8.658;2022-08-06T01:31:08;4.85;;;1.27;;
29120;SDS011;16191;49.548;8.658;2022-08-06T01:36:24;4.22;;;1.15;;
29120;SDS011;16191;49.548;8.658;2022-08-06T01:38:57;2.05;;;1.20;;
29120;SDS011;16191;49.548;8.658;2022-08-06T01:41:30;4.28;;;1.33;;
29120;SDS011;16191;49.548;8.658;2022-08-06T01:44:33;3.33;;;1.27;;
29120;SDS011;16191;49.548;8.658;2022-08-06T01:47:08;2.38;;;1.10;;
29120;SDS011;16191;49.548;8.658;2022-08-06T01:49:43;4.20;;;1.10;;
29120;SDS011;16191;49.548;8.658;2022-08-06T01:52:29;2.17;;;1.00;;
29120;SDS011;16191;49.548;8.658;2022-08-06T01:54:59;1.55;;;1.23;;
29120;SDS011;16191;49.548;8.658;2022-08-06T01:57:28;4.25;;;1.30;;
29120;SDS011;16191;49.548;8.658;2022-08-06T02:00:18;2.22;;;1.13;;
29120;SDS011;16191;49.548;8.658;2022-08-06T02:02:54;5.18;;;1.60;;
29120;SDS011;16191;49.548;8.658;2022-08-06T02:05:24;2.33;;;1.30;;
29120;SDS011;16191;49.548;8.658;2022-08-06T02:07:57;2.83;;;1.40;;
29120;SDS011;16191;49.548;8.658;2022-08-06T02:10:46;3.50;;;1.50;;
29120;SDS011;16191;49.548;8.658;2022-08-06T02:13:16;2.97;;;1.40;;
29120;SDS011;16191;49.548;8.658;2022-08-06T02:15:45;2.17;;;1.20;;
29120;SDS011;16191;49.548;8.658;2022-08-06T02:18:26;2.33;;;1.27;;
29120;SDS011;16191;49.548;8.658;2022-08-06T02:21:02;5.93;;;1.40;;
29120;SDS011;16191;49.548;8.658;2022-08-06T02:23:44;7.63;;;1.70;;
29120;SDS011;16191;49.548;8.658;2022-08-06T02:26:15;1.80;;;1.08;;
29120;SDS011;16191;49.548;8.658;2022-08-06T02:28:46;2.20;;;1.20;;
29120;SDS011;16191;49.548;8.658;2022-08-06T02:31:15;2.35;;;1.20;;
29120;SDS011;16191;49.548;8.658;2022-08-06T02:33:46;5.80;;;1.48;;
29120;SDS011;16191;49.548;8.658;2022-08-06T02:36:39;4.97;;;1.60;;
29120;SDS011;16191;49.548;8.658;2022-08-06T02:39:22;6.32;;;1.60;;
29120;SDS011;16191;49.548;8.658;2022-08-06T02:42:20;5.95;;;1.85;;
29120;SDS011;16191;49.548;8.658;2022-08-06T02:47:42;6.82;;;1.67;;
29120;SDS011;16191;49.548;8.658;2022-08-06T02:50:37;6.93;;;1.50;;
29120;SDS011;16191;49.548;8.658;2022-08-06T02:53:08;7.00;;;1.70;;
29120;SDS011;16191;49.548;8.658;2022-08-06T02:55:53;2.70;;;1.33;;
29120;SDS011;16191;49.548;8.658;2022-08-06T03:01:34;5.80;;;1.50;;
29120;SDS011;16191;49.548;8.658;2022-08-06T03:04:09;5.30;;;1.60;;
29120;SDS011;16191;49.548;8.658;2022-08-06T03:06:37;7.72;;;2.35;;
29120;SDS011;16191;49.548;8.658;2022-08-06T03:09:08;4.63;;;1.30;;
29120;SDS011;16191;49.548;8.658;2022-08-06T03:11:40;3.00;;;1.52;;
29120;SDS011;16191;49.548;8.658;2022-08-06T03:14:07;2.67;;;1.23;;
29120;SDS011;16191;49.548;8.658;2022-08-06T03:16:56;7.28;;;1.50;;
29120;SDS011;16191;49.548;8.658;2022-08-06T03:19:26;3.03;;;1.00;;
29120;SDS011;16191;49.548;8.658;2022-08-06T03:22:15;7.47;;;1.45;;
29120;SDS011;16191;49.548;8.658;2022-08-06T03:25:04;2.78;;;1.30;;
29120;SDS011;16191;49.548;8.658;2022-08-06T03:27:34;4.70;;;1.58;;
29120;SDS011;16191;49.548;8.658;2022-08-06T03:30:09;3.17;;;1.42;;
29120;SDS011;16191;49.548;8.658;2022-08-06T03:32:57;4.63;;;1.77;;
29120;SDS011;16191;49.548;8.658;2022-08-06T03:35:46;7.35;;;2.20;;
29120;SDS011;16191;49.548;8.658;2022-08-06T03:38:16;5.50;;;2.35;;
29120;SDS011;16191;49.548;8.658;2022-08-06T03:40:45;4.75;;;1.63;;
29120;SDS011;16191;49.548;8.658;2022-08-06T03:43:14;4.28;;;1.50;;
29120;SDS011;16191;49.548;8.658;2022-08-06T03:46:00;3.47;;;1.35;;
29120;SDS011;16191;49.548;8.658;2022-08-06T03:48:32;4.75;;;1.33;;
29120;SDS011;16191;49.548;8.658;2022-08-06T03:51:04;2.80;;;1.38;;
29120;SDS011;16191;49.548;8.658;2022-08-06T03:53:36;4.22;;;1.30;;
29120;SDS011;16191;49.548;8.658;2022-08-06T03:56:16;1.92;;;1.33;;
29120;SDS011;16191;49.548;8.658;2022-08-06T03:58:56;4.10;;;1.67;;
29120;SDS011;16191;49.548;8.658;2022-08-06T04:01:31;5.60;;;1.67;;
29120;SDS011;16191;49.548;8.658;2022-08-06T04:04:08;2.70;;;1.40;;
29120;SDS011;16191;49.548;8.658;2022-08-06T04:06:52;3.30;;;1.52;;
29120;SDS011;16191;49.548;8.658;2022-08-06T04:09:24;5.80;;;1.45;;
29120;SDS011;16191;49.548;8.658;2022-08-06T04:12:12;9.95;;;1.92;;
29120;SDS011;16191;49.548;8.658;2022-08-06T04:14:59;1.92;;;1.40;;
29120;SDS011;16191;49.548;8.658;2022-08-06T04:17:33;3.78;;;1.55;;
29120;SDS011;16191;49.548;8.658;2022-08-06T04:20:06;4.50;;;1.60;;
29120;SDS011;16191;49.548;8.658;2022-08-06T04:22:34;6.15;;;1.60;;
29120;SDS011;16191;49.548;8.658;2022-08-06T04:25:21;3.53;;;1.55;;
29120;SDS011;16191;49.548;8.658;2022-08-06T04:30:23;5.07;;;1.35;;
29120;SDS011;16191;49.548;8.658;2022-08-06T04:32:55;3.70;;;1.45;;
29120;SDS011;16191;49.548;8.658;2022-08-06T04:35:27;4.60;;;1.38;;
29120;SDS011;16191;49.548;8.658;2022-08-06T04:38:16;3.28;;;1.40;;
29120;SDS011;16191;49.548;8.658;2022-08-06T04:40:55;4.00;;;1.13;;
29120;SDS011;16191;49.548;8.658;2022-08-06T04:43:23;2.35;;;1.20;;
29120;SDS011;16191;49.548;8.658;2022-08-06T04:46:10;2.15;;;1.10;;
29120;SDS011;16191;49.548;8.658;2022-08-06T04:48:45;9.05;;;1.52;;
29120;SDS011;16191;49.548;8.658;2022-08-06T04:51:16;3.03;;;1.15;;
29120;SDS011;16191;49.548;8.658;2022-08-06T04:54:05;3.33;;;1.38;;
29120;SDS011;16191;49.548;8.658;2022-08-06T04:56:37;3.42;;;1.30;;
29120;SDS011;16191;49.548;8.658;2022-08-06T04:59:13;5.18;;;1.40;;
29120;SDS011;16191;49.548;8.658;2022-08-06T05:01:40;9.57;;;1.75;;
29120;SDS011;16191;49.548;8.658;2022-08-06T05:04:26;3.40;;;1.25;;
29120;SDS011;16191;49.548;8.658;2022-08-06T05:07:05;6.22;;;1.35;;
29120;SDS011;16191;49.548;8.658;2022-08-06T05:09:39;4.90;;;1.48;;
29120;SDS011;16191;49.548;8.658;2022-08-06T05:12:32;4.32;;;1.30;;
29120;SDS011;16191;49.548;8.658;2022-08-06T05:17:33;4.97;;;1.63;;
29120;SDS011;16191;49.548;8.658;2022-08-06T05:20:06;2.45;;;1.50;;
29120;SDS011;16191;49.548;8.658;2022-08-06T05:22:57;3.38;;;1.40;;
29120;SDS011;16191;49.548;8.658;2022-08-06T05:25:30;6.22;;;1.88;;
29120;SDS011;16191;49.548;8.658;2022-08-06T05:28:02;5.18;;;1.00;;
29120;SDS011;16191;49.548;8.658;2022-08-06T05:30:43;4.82;;;1.75;;
29120;SDS011;16191;49.548;8.658;2022-08-06T05:33:10;1.83;;;1.15;;
29120;SDS011;16191;49.548;8.658;2022-08-06T05:35:42;2.92;;;1.20;;
29120;SDS011;16191;49.548;8.658;2022-08-06T05:38:28;4.80;;;1.45;;
29120;SDS011;16191;49.548;8.658;2022-08-06T05:40:57;6.10;;;1.30;;
29120;SDS011;16191;49.548;8.658;2022-08-06T05:43:25;2.75;;;1.10;;
29120;SDS011;16191;49.548;8.658;2022-08-06T05:46:15;6.57;;;1.27;;
29120;SDS011;16191;49.548;8.658;2022-08-06T05:48:54;3.25;;;1.38;;
29120;SDS011;16191;49.548;8.658;2022-08-06T05:52:02;5.03;;;1.20;;
29120;SDS011;16191;49.548;8.658;2022-08-06T05:54:43;5.43;;;1.15;;
29120;SDS011;16191;49.548;8.658;2022-08-06T05:57:24;3.10;;;1.10;;
29120;SDS011;16191;49.548;8.658;2022-08-06T06:00:11;3.83;;;1.20;;
29120;SDS011;16191;49.548;8.658;2022-08-06T06:03:03;4.93;;;1.45;;
29120;SDS011;16191;49.548;8.658;2022-08-06T06:05:32;4.60;;;1.27;;
29120;SDS011;16191;49.548;8.658;2022-08-06T06:08:21;5.95;;;1.40;;
29120;SDS011;16191;49.548;8.658;2022-08-06T06:11:06;7.10;;;1.20;;
29120;SDS011;16191;49.548;8.658;2022-08-06T06:13:35;3.60;;;1.35;;
29120;SDS011;16191;49.548;8.658;2022-08-06T06:16:26;5.93;;;1.08;;
29120;SDS011;16191;49.548;8.658;2022-08-06T06:24:45;4.15;;;1.13;;
29120;SDS011;16191;49.548;8.658;2022-08-06T06:27:17;6.68;;;1.45;;
29120;SDS011;16191;49.548;8.658;2022-08-06T06:30:09;4.82;;;1.40;;
29120;SDS011;16191;49.548;8.658;2022-08-06T06:36:22;2.70;;;1.30;;
29120;SDS011;16191;49.548;8.658;2022-08-06T06:39:06;6.72;;;1.42;;
29120;SDS011;16191;49.548;8.658;2022-08-06T06:41:41;1.67;;;0.90;;
29120;SDS011;16191;49.548;8.658;2022-08-06T06:47:25;3.97;;;0.93;;
29120;SDS011;16191;49.548;8.658;2022-08-06T06:50:13;2.97;;;1.20;;
29120;SDS011;16191;49.548;8.658;2022-08-06T06:52:46;4.22;;;1.10;;
29120;SDS011;16191;49.548;8.658;2022-08-06T06:58:25;7.40;;;1.08;;
29120;SDS011;16191;49.548;8.658;2022-08-06T07:01:10;2.47;;;1.02;;
29120;SDS011;16191;49.548;8.658;2022-08-06T07:03:54;2.03;;;0.73;;
29120;SDS011;16191;49.548;8.658;2022-08-06T07:06:22;2.45;;;0.80;;
29120;SDS011;16191;49.548;8.658;2022-08-06T07:09:08;3.22;;;1.05;;
29120;SDS011;16191;49.548;8.658;2022-08-06T07:11:57;3.70;;;0.90;;
29120;SDS011;16191;49.548;8.658;2022-08-06T07:14:29;3.00;;;0.95;;
29120;SDS011;16191;49.548;8.658;2022-08-06T07:16:59;3.40;;;0.88;;
29120;SDS011;16191;49.548;8.658;2022-08-06T07:19:46;1.65;;;0.80;;
29120;SDS011;16191;49.548;8.658;2022-08-06T07:22:20;2.38;;;0.80;;
29120;SDS011;16191;49.548;8.658;2022-08-06T07:24:54;5.72;;;0.85;;
29120;SDS011;16191;49.548;8.658;2022-08-06T07:27:27;6.32;;;1.20;;
29120;SDS011;16191;49.548;8.658;2022-08-06T07:30:15;3.22;;;1.33;;
29120;SDS011;16191;49.548;8.658;2022-08-06T07:32:43;1.40;;;0.90;;
29120;SDS011;16191;49.548;8.658;2022-08-06T07:35:15;4.78;;;1.00;;
29120;SDS011;16191;49.548;8.658;2022-08-06T07:37:49;4.95;;;0.73;;
29120;SDS011;16191;49.548;8.658;2022-08-06T07:40:24;4.65;;;0.80;;
29120;SDS011;16191;49.548;8.658;2022-08-06T07:42:55;5.22;;;0.85;;
29120;SDS011;16191;49.548;8.658;2022-08-06T07:45:28;7.68;;;0.85;;
29120;SDS011;16191;49.548;8.658;2022-08-06T07:48:17;5.28;;;1.20;;
29120;SDS011;16191;49.548;8.658;2022-08-06T07:50:50;3.15;;;0.85;;
29120;SDS011;16191;49.548;8.658;2022-08-06T07:53:20;3.95;;;1.05;;
29120;SDS011;16191;49.548;8.658;2022-08-06T07:56:08;4.63;;;3.30;;
29120;SDS011;16191;49.548;8.658;2022-08-06T07:58:37;3.72;;;1.92;;
29120;SDS011;16191;49.548;8.658;2022-08-06T08:01:11;5.38;;;1.00;;
29120;SDS011;16191;49.548;8.658;2022-08-06T08:03:44;5.22;;;0.88;;
29120;SDS011;16191;49.548;8.658;2022-08-06T08:06:54;3.03;;;0.70;;
29120;SDS011;16191;49.548;8.658;2022-08-06T08:09:23;6.13;;;0.77;;
29120;SDS011;16191;49.548;8.658;2022-08-06T08:12:13;5.18;;;0.65;;
29120;SDS011;16191;49.548;8.658;2022-08-06T08:15:02;2.35;;;0.75;;
29120;SDS011;16191;49.548;8.658;2022-08-06T08:17:48;1.27;;;0.75;;
29120;SDS011;16191;49.548;8.658;2022-08-06T08:20:23;3.85;;;0.90;;
29120;SDS011;16191;49.548;8.658;2022-08-06T08:23:00;5.22;;;0.45;;
29120;SDS011;16191;49.548;8.658;2022-08-06T08:25:30;3.67;;;0.70;;
29120;SDS011;16191;49.548;8.658;2022-08-06T08:28:09;3.85;;;0.90;;
29120;SDS011;16191;49.548;8.658;2022-08-06T08:30:40;2.85;;;0.82;;
29120;SDS011;16191;49.548;8.658;2022-08-06T08:33:09;2.28;;;0.50;;
29120;SDS011;16191;49.548;8.658;2022-08-06T08:35:43;3.80;;;0.77;;
29120;SDS011;16191;49.548;8.658;2022-08-06T08:38:25;3.65;;;0.90;;
29120;SDS011;16191;49.548;8.658;2022-08-06T08:40:55;4.70;;;0.87;;
29120;SDS011;16191;49.548;8.658;2022-08-06T08:43:29;1.58;;;0.65;;
29120;SDS011;16191;49.548;8.658;2022-08-06T08:46:20;3.42;;;1.00;;
29120;SDS011;16191;49.548;8.658;2022-08-06T08:48:57;3.85;;;0.70;;
29120;SDS011;16191;49.548;8.658;2022-08-06T08:51:27;2.65;;;0.93;;
29120;SDS011;16191;49.548;8.658;2022-08-06T08:54:09;1.33;;;0.75;;
29120;SDS011;16191;49.548;8.658;2022-08-06T08:56:42;2.28;;;0.98;;
29120;SDS011;16191;49.548;8.658;2022-08-06T08:59:32;2.90;;;1.23;;
29120;SDS011;16191;49.548;8.658;2022-08-06T09:02:21;5.55;;;1.10;;
29120;SDS011;16191;49.548;8.658;2022-08-06T09:04:50;5.13;;;0.57;;
29120;SDS011;16191;49.548;8.658;2022-08-06T09:07:18;4.38;;;1.50;;
29120;SDS011;16191;49.548;8.658;2022-08-06T09:10:00;5.38;;;1.08;;
29120;SDS011;16191;49.548;8.658;2022-08-06T09:12:29;2.20;;;0.63;;
29120;SDS011;16191;49.548;8.658;2022-08-06T09:15:01;3.40;;;0.60;;
29120;SDS011;16191;49.548;8.658;2022-08-06T09:17:28;2.15;;;0.57;;
29120;SDS011;16191;49.548;8.658;2022-08-06T09:20:16;5.65;;;0.90;;
29120;SDS011;16191;49.548;8.658;2022-08-06T09:22:43;15.55;;;1.23;;
29120;SDS011;16191;49.548;8.658;2022-08-06T09:25:34;1.33;;;0.50;;
29120;SDS011;16191;49.548;8.658;2022-08-06T09:28:27;0.70;;;0.40;;
29120;SDS011;16191;49.548;8.658;2022-08-06T09:31:10;4.95;;;0.80;;
29120;SDS011;16191;49.548;8.658;2022-08-06T09:33:58;4.28;;;0.65;;
29120;SDS011;16191;49.548;8.658;2022-08-06T09:36:47;0.88;;;0.60;;
29120;SDS011;16191;49.548;8.658;2022-08-06T09:39:29;2.95;;;0.70;;
29120;SDS011;16191;49.548;8.658;2022-08-06T09:42:34;4.18;;;0.70;;
29120;SDS011;16191;49.548;8.658;2022-08-06T09:45:08;1.73;;;0.70;;
29120;SDS011;16191;49.548;8.658;2022-08-06T09:47:47;3.25;;;0.68;;
29120;SDS011;16191;49.548;8.658;2022-08-06T09:53:09;5.20;;;0.60;;
29120;SDS011;16191;49.548;8.658;2022-08-06T09:55:40;4.97;;;0.70;;
29120;SDS011;16191;49.548;8.658;2022-08-06T09:58:07;4.82;;;0.93;;
29120;SDS011;16191;49.548;8.658;2022-08-06T10:00:36;4.78;;;0.60;;
29120;SDS011;16191;49.548;8.658;2022-08-06T10:03:04;4.72;;;0.88;;
29120;SDS011;16191;49.548;8.658;2022-08-06T10:06:05;0.60;;;0.40;;
29120;SDS011;16191;49.548;8.658;2022-08-06T10:08:36;3.72;;;0.70;;
29120;SDS011;16191;49.548;8.658;2022-08-06T10:11:04;3.42;;;0.70;;
29120;SDS011;16191;49.548;8.658;2022-08-06T10:13:33;2.75;;;0.70;;
29120;SDS011;16191;49.548;8.658;2022-08-06T10:16:20;4.07;;;0.65;;
29120;SDS011;16191;49.548;8.658;2022-08-06T10:18:54;0.93;;;0.60;;
29120;SDS011;16191;49.548;8.658;2022-08-06T10:21:30;3.38;;;0.60;;
29120;SDS011;16191;49.548;8.658;2022-08-06T10:24:11;1.48;;;0.50;;
29120;SDS011;16191;49.548;8.658;2022-08-06T10:27:00;6.70;;;0.52;;
29120;SDS011;16191;49.548;8.658;2022-08-06T10:29:28;1.63;;;0.65;;
29120;SDS011;16191;49.548;8.658;2022-08-06T10:31:59;1.45;;;0.50;;
29120;SDS011;16191;49.548;8.658;2022-08-06T10:34:27;1.08;;;0.60;;
29120;SDS011;16191;49.548;8.658;2022-08-06T10:37:00;3.78;;;0.60;;
29120;SDS011;16191;49.548;8.658;2022-08-06T10:39:54;1.25;;;0.57;;
29120;SDS011;16191;49.548;8.658;2022-08-06T10:42:35;1.48;;;0.50;;
29120;SDS011;16191;49.548;8.658;2022-08-06T10:45:05;1.13;;;0.55;;
29120;SDS011;16191;49.548;8.658;2022-08-06T10:47:39;1.30;;;0.45;;
29120;SDS011;16191;49.548;8.658;2022-08-06T10:50:28;0.60;;;0.50;;
29120;SDS011;16191;49.548;8.658;2022-08-06T10:53:14;1.20;;;0.52;;
29120;SDS011;16191;49.548;8.658;2022-08-06T10:56:04;0.85;;;0.55;;
29120;SDS011;16191;49.548;8.658;2022-08-06T10:58:34;2.05;;;0.45;;
29120;SDS011;16191;49.548;8.658;2022-08-06T11:01:04;0.75;;;0.40;;
29120;SDS011;16191;49.548;8.658;2022-08-06T11:09:32;4.68;;;0.80;;
29120;SDS011;16191;49.548;8.658;2022-08-06T11:12:31;1.85;;;0.65;;
29120;SDS011;16191;49.548;8.658;2022-08-06T11:15:16;2.30;;;0.77;;
29120;SDS011;16191;49.548;8.658;2022-08-06T11:17:54;0.95;;;0.45;;
29120;SDS011;16191;49.548;8.658;2022-08-06T11:23:03;1.40;;;0.60;;
29120;SDS011;16191;49.548;8.658;2022-08-06T11:28:07;5.28;;;0.80;;
29120;SDS011;16191;49.548;8.658;2022-08-06T11:30:57;2.40;;;0.63;;
29120;SDS011;16191;49.548;8.658;2022-08-06T11:36:00;1.30;;;0.45;;
29120;SDS011;16191;49.548;8.658;2022-08-06T11:44:11;4.10;;;0.50;;
29120;SDS011;16191;49.548;8.658;2022-08-06T11:46:43;0.95;;;0.30;;
29120;SDS011;16191;49.548;8.658;2022-08-06T11:49:21;1.52;;;0.50;;
29120;SDS011;16191;49.548;8.658;2022-08-06T11:52:37;5.72;;;0.65;;
29120;SDS011;16191;49.548;8.658;2022-08-06T11:55:06;1.42;;;0.40;;
29120;SDS011;16191;49.548;8.658;2022-08-06T11:57:50;1.30;;;0.40;;
29120;SDS011;16191;49.548;8.658;2022-08-06T12:00:54;0.80;;;0.55;;
29120;SDS011;16191;49.548;8.658;2022-08-06T12:03:36;1.38;;;0.40;;
29120;SDS011;16191;49.548;8.658;2022-08-06T12:06:18;4.65;;;0.60;;
29120;SDS011;16191;49.548;8.658;2022-08-06T12:09:05;2.70;;;0.47;;
29120;SDS011;16191;49.548;8.658;2022-08-06T12:11:49;0.93;;;0.40;;
29120;SDS011;16191;49.548;8.658;2022-08-06T12:17:24;0.88;;;0.40;;
29120;SDS011;16191;49.548;8.658;2022-08-06T12:20:11;2.25;;;0.52;;
29120;SDS011;16191;49.548;8.658;2022-08-06T12:22:58;1.23;;;0.40;;
29120;SDS011;16191;49.548;8.658;2022-08-06T12:25:29;2.65;;;0.50;;
29120;SDS011;16191;49.548;8.658;2022-08-06T12:28:01;1.80;;;0.52;;
29120;SDS011;16191;49.548;8.658;2022-08-06T12:33:48;1.70;;;0.50;;
29120;SDS011;16191;49.548;8.658;2022-08-06T12:36:15;5.55;;;0.50;;
29120;SDS011;16191;49.548;8.658;2022-08-06T12:39:01;1.75;;;0.70;;
29120;SDS011;16191;49.548;8.658;2022-08-06T12:41:31;2.15;;;0.50;;
29120;SDS011;16191;49.548;8.658;2022-08-06T12:44:11;3.67;;;0.40;;
29120;SDS011;16191;49.548;8.658;2022-08-06T12:46:40;0.82;;;0.20;;
29120;SDS011;16191;49.548;8.658;2022-08-06T12:49:08;0.93;;;0.38;;
29120;SDS011;16191;49.548;8.658;2022-08-06T12:51:36;3.35;;;0.57;;
29120;SDS011;16191;49.548;8.658;2022-08-06T12:54:04;0.70;;;0.38;;
29120;SDS011;16191;49.548;8.658;2022-08-06T12:56:34;1.10;;;0.38;;
29120;SDS011;16191;49.548;8.658;2022-08-06T12:59:05;3.05;;;0.60;;
29120;SDS011;16191;49.548;8.658;2022-08-06T13:01:49;1.60;;;0.50;;
29120;SDS011;16191;49.548;8.658;2022-08-06T13:04:37;3.67;;;0.40;;
29120;SDS011;16191;49.548;8.658;2022-08-06T13:07:09;4.25;;;0.50;;
29120;SDS011;16191;49.548;8.658;2022-08-06T13:09:40;3.72;;;0.70;;
29120;SDS011;16191;49.548;8.658;2022-08-06T13:12:28;0.68;;;0.45;;
29120;SDS011;16191;49.548;8.658;2022-08-06T13:15:15;1.08;;;0.50;;
29120;SDS011;16191;49.548;8.658;2022-08-06T13:20:55;1.60;;;0.80;;
29120;SDS011;16191;49.548;8.658;2022-08-06T13:23:31;1.25;;;0.30;;
29120;SDS011;16191;49.548;8.658;2022-08-06T13:26:13;2.83;;;0.50;;
29120;SDS011;16191;49.548;8.658;2022-08-06T13:32:08;0.82;;;0.40;;
29120;SDS011;16191;49.548;8.658;2022-08-06T13:34:56;1.15;;;0.40;;
29120;SDS011;16191;49.548;8.658;2022-08-06T13:37:43;2.87;;;0.47;;
29120;SDS011;16191;49.548;8.658;2022-08-06T13:40:41;1.75;;;0.80;;
29120;SDS011;16191;49.548;8.658;2022-08-06T13:43:32;3.05;;;0.55;;
29120;SDS011;16191;49.548;8.658;2022-08-06T13:46:11;1.45;;;0.50;;
29120;SDS011;16191;49.548;8.658;2022-08-06T13:48:46;2.45;;;0.70;;
29120;SDS011;16191;49.548;8.658;2022-08-06T13:51:15;3.63;;;0.50;;
29120;SDS011;16191;49.548;8.658;2022-08-06T13:53:52;2.20;;;0.50;;
29120;SDS011;16191;49.548;8.658;2022-08-06T13:56:23;0.80;;;0.20;;
29120;SDS011;16191;49.548;8.658;2022-08-06T13:58:55;2.75;;;0.70;;
29120;SDS011;16191;49.548;8.658;2022-08-06T14:01:26;2.53;;;0.65;;
29120;SDS011;16191;49.548;8.658;2022-08-06T14:04:11;1.25;;;0.40;;
29120;SDS011;16191;49.548;8.658;2022-08-06T14:06:39;2.73;;;0.40;;
29120;SDS011;16191;49.548;8.658;2022-08-06T14:09:12;1.38;;;0.40;;
29120;SDS011;16191;49.548;8.658;2022-08-06T14:11:51;1.52;;;0.50;;
29120;SDS011;16191;49.548;8.658;2022-08-06T14:14:21;2.50;;;0.60;;
29120;SDS011;16191;49.548;8.658;2022-08-06T14:19:17;3.80;;;0.50;;
29120;SDS011;16191;49.548;8.658;2022-08-06T14:22:04;1.27;;;0.40;;
29120;SDS011;16191;49.548;8.658;2022-08-06T14:24:33;1.20;;;0.60;;
29120;SDS011;16191;49.548;8.658;2022-08-06T14:27:05;0.88;;;0.30;;
29120;SDS011;16191;49.548;8.658;2022-08-06T14:29:51;1.23;;;0.40;;
29120;SDS011;16191;49.548;8.658;2022-08-06T14:32:38;1.75;;;0.47;;
29120;SDS011;16191;49.548;8.658;2022-08-06T14:35:06;2.67;;;0.40;;
29120;SDS011;16191;49.548;8.658;2022-08-06T14:37:33;0.95;;;0.45;;
29120;SDS011;16191;49.548;8.658;2022-08-06T14:40:18;2.42;;;0.43;;
29120;SDS011;16191;49.548;8.658;2022-08-06T14:43:24;2.55;;;0.52;;
29120;SDS011;16191;49.548;8.658;2022-08-06T14:46:23;1.15;;;0.50;;
29120;SDS011;16191;49.548;8.658;2022-08-06T14:48:56;2.70;;;0.40;;
29120;SDS011;16191;49.548;8.658;2022-08-06T14:54:12;1.48;;;0.60;;
29120;SDS011;16191;49.548;8.658;2022-08-06T14:56:40;1.55;;;0.65;;
29120;SDS011;16191;49.548;8.658;2022-08-06T14:59:17;1.08;;;0.60;;
29120;SDS011;16191;49.548;8.658;2022-08-06T15:01:44;4.13;;;0.40;;
29120;SDS011;16191;49.548;8.658;2022-08-06T15:04:12;1.30;;;0.35;;
29120;SDS011;16191;49.548;8.658;2022-08-06T15:06:50;1.48;;;0.50;;
29120;SDS011;16191;49.548;8.658;2022-08-06T15:09:24;0.82;;;0.52;;
29120;SDS011;16191;49.548;8.658;2022-08-06T15:12:12;1.00;;;0.47;;
29120;SDS011;16191;49.548;8.658;2022-08-06T15:14:39;2.20;;;0.50;;
29120;SDS011;16191;49.548;8.658;2022-08-06T15:17:16;1.00;;;0.57;;
29120;SDS011;16191;49.548;8.658;2022-08-06T15:20:03;3.95;;;0.90;;
29120;SDS011;16191;49.548;8.658;2022-08-06T15:22:34;1.77;;;1.25;;
29120;SDS011;16191;49.548;8.658;2022-08-06T15:25:04;2.30;;;0.40;;
29120;SDS011;16191;49.548;8.658;2022-08-06T15:27:43;3.10;;;0.40;;
29120;SDS011;16191;49.548;8.658;2022-08-06T15:30:11;3.95;;;0.60;;
29120;SDS011;16191;49.548;8.658;2022-08-06T15:32:39;1.13;;;0.43;;
29120;SDS011;16191;49.548;8.658;2022-08-06T15:35:06;2.03;;;0.63;;
29120;SDS011;16191;49.548;8.658;2022-08-06T15:37:33;0.85;;;0.38;;
29120;SDS011;16191;49.548;8.658;2022-08-06T15:40:20;5.10;;;0.50;;
29120;SDS011;16191;49.548;8.658;2022-08-06T15:42:55;0.93;;;0.40;;
29120;SDS011;16191;49.548;8.658;2022-08-06T15:45:21;1.65;;;0.30;;
29120;SDS011;16191;49.548;8.658;2022-08-06T15:48:08;1.70;;;0.40;;
29120;SDS011;16191;49.548;8.658;2022-08-06T15:50:35;2.90;;;0.60;;
29120;SDS011;16191;49.548;8.658;2022-08-06T15:53:21;1.02;;;0.30;;
29120;SDS011;16191;49.548;8.658;2022-08-06T15:55:49;1.48;;;0.60;;
29120;SDS011;16191;49.548;8.658;2022-08-06T15:58:15;1.65;;;0.43;;
29120;SDS011;16191;49.548;8.658;2022-08-06T16:00:54;0.93;;;0.32;;
29120;SDS011;16191;49.548;8.658;2022-08-06T16:03:30;2.85;;;0.45;;
29120;SDS011;16191;49.548;8.658;2022-08-06T16:06:03;0.85;;;0.68;;
29120;SDS011;16191;49.548;8.658;2022-08-06T16:08:38;2.70;;;0.60;;
29120;SDS011;16191;49.548;8.658;2022-08-06T16:11:11;1.98;;;0.50;;
29120;SDS011;16191;49.548;8.658;2022-08-06T16:13:39;2.63;;;0.57;;
29120;SDS011;16191;49.548;8.658;2022-08-06T16:16:19;3.53;;;0.50;;
29120;SDS011;16191;49.548;8.658;2022-08-06T16:18:46;0.57;;;0.30;;
29120;SDS011;16191;49.548;8.658;2022-08-06T16:21:17;2.33;;;0.50;;
29120;SDS011;16191;49.548;8.658;2022-08-06T16:23:44;1.25;;;0.50;;
29120;SDS011;16191;49.548;8.658;2022-08-06T16:26:28;2.08;;;0.57;;
29120;SDS011;16191;49.548;8.658;2022-08-06T16:29:13;1.33;;;0.50;;
29120;SDS011;16191;49.548;8.658;2022-08-06T16:31:43;1.30;;;0.45;;
29120;SDS011;16191;49.548;8.658;2022-08-06T16:34:13;3.17;;;0.40;;
29120;SDS011;16191;49.548;8.658;2022-08-06T16:36:42;1.20;;;0.47;;
29120;SDS011;16191;49.548;8.658;2022-08-06T16:39:09;1.38;;;0.40;;
29120;SDS011;16191;49.548;8.658;2022-08-06T16:41:39;1.95;;;0.40;;
29120;SDS011;16191;49.548;8.658;2022-08-06T16:44:25;2.47;;;0.80;;
29120;SDS011;16191;49.548;8.658;2022-08-06T16:47:02;1.08;;;0.60;;
29120;SDS011;16191;49.548;8.658;2022-08-06T16:49:32;3.15;;;0.50;;
29120;SDS011;16191;49.548;8.658;2022-08-06T16:52:19;0.88;;;0.40;;
29120;SDS011;16191;49.548;8.658;2022-08-06T16:55:07;3.22;;;0.60;;
29120;SDS011;16191;49.548;8.658;2022-08-06T16:57:34;3.40;;;0.55;;
29120;SDS011;16191;49.548;8.658;2022-08-06T17:00:04;1.55;;;0.60;;
29120;SDS011;16191;49.548;8.658;2022-08-06T17:02:33;0.85;;;0.43;;
29120;SDS011;16191;49.548;8.658;2022-08-06T17:05:09;4.85;;;0.40;;